Time,TemperatureF,DewpointF,PressureIn,WindDirection,WindDirectionDegrees,WindSpeedMPH,WindSpeedGustMPH,Humidity,HourlyPrecipIn,Conditions,Clouds,dailyrainin,SoftwareType,DateUTC
2013-06-11 00:10:00,58.5,52.0,29.69,NNE,22,3.2,-999.0,79,-99.99,,,0.00,Acu-Link.com,2013-06-11 07:10:00,
2013-06-11 00:25:00,58.3,51.8,29.69,NNW,337,5.3,-999.0,79,-99.99,,,0.00,Acu-Link.com,2013-06-11 07:25:00,
2013-06-11 00:40:00,58.1,51.6,29.70,WNW,292,5.8,-999.0,79,-99.99,,,0.00,Acu-Link.com,2013-06-11 07:40:00,
2013-06-11 00:56:00,57.9,51.4,29.70,SE,135,3.2,-999.0,79,-99.99,,,0.00,Acu-Link.com,2013-06-11 07:56:00,
2013-06-11 01:12:00,57.7,51.2,29.70,ENE,67,4.2,-999.0,79,-99.99,,,0.00,Acu-Link.com,2013-06-11 08:12:00,
2013-06-11 01:27:00,57.7,51.2,29.69,East,90,5.3,-999.0,79,-99.99,,,0.00,Acu-Link.com,2013-06-11 08:27:00,
2013-06-11 01:42:00,57.9,51.4,29.69,East,90,6.8,-999.0,79,-99.99,,,0.00,Acu-Link.com,2013-06-11 08:42:00,
2013-06-11 01:57:00,57.6,51.5,29.70,West,270,3.2,-999.0,80,-99.99,,,0.00,Acu-Link.com,2013-06-11 08:57:00,
2013-06-11 02:12:00,57.4,51.3,29.70,ENE,67,2.2,-999.0,80,-99.99,,,0.00,Acu-Link.com,2013-06-11 09:12:00,
2013-06-11 02:28:00,57.4,51.3,29.70,WNW,292,5.8,-999.0,80,-99.99,,,0.00,Acu-Link.com,2013-06-11 09:28:00,
2013-06-11 02:43:00,57.2,51.1,29.70,WSW,247,0.0,-999.0,80,-99.99,,,0.00,Acu-Link.com,2013-06-11 09:43:00,
2013-06-11 02:58:00,56.5,51.1,29.70,WNW,292,3.2,-999.0,82,-99.99,,,0.00,Acu-Link.com,2013-06-11 09:58:00,
2013-06-11 03:13:00,56.3,51.2,29.69,North,0,1.7,-999.0,83,-99.99,,,0.00,Acu-Link.com,2013-06-11 10:13:00,
2013-06-11 03:29:00,56.3,51.2,29.69,SE,135,1.1,-999.0,83,-99.99,,,0.00,Acu-Link.com,2013-06-11 10:29:00,
2013-06-11 03:44:00,56.5,51.4,29.69,ESE,112,0.0,-999.0,83,-99.99,,,0.00,Acu-Link.com,2013-06-11 10:44:00,
2013-06-11 03:59:00,55.8,50.7,29.70,NW,315,0.0,-999.0,83,-99.99,,,0.00,Acu-Link.com,2013-06-11 10:59:00,
2013-06-11 04:14:00,54.7,50.3,29.69,NW,315,0.0,-999.0,85,-99.99,,,0.00,Acu-Link.com,2013-06-11 11:14:00,
2013-06-11 04:30:00,54.1,50.3,29.69,SSE,157,0.0,-999.0,87,-99.99,,,0.00,Acu-Link.com,2013-06-11 11:30:00,
2013-06-11 04:45:00,54.7,50.6,29.70,West,270,0.0,-999.0,86,-99.99,,,0.00,Acu-Link.com,2013-06-11 11:45:00,
2013-06-11 05:00:00,54.7,50.9,29.70,West,270,0.0,-999.0,87,-99.99,,,0.00,Acu-Link.com,2013-06-11 12:00:00,
2013-06-11 05:15:00,54.3,50.5,29.70,West,270,0.0,-999.0,87,-99.99,,,0.00,Acu-Link.com,2013-06-11 12:15:00,
2013-06-11 05:31:00,54.5,50.7,29.70,West,270,0.0,-999.0,87,-99.99,,,0.00,Acu-Link.com,2013-06-11 12:31:00,
2013-06-11 06:01:00,54.1,50.6,29.70,West,270,0.0,-999.0,88,-99.99,,,0.00,Acu-Link.com,2013-06-11 13:01:00,
2013-06-11 06:17:00,54.1,50.6,29.71,South,180,0.0,-999.0,88,-99.99,,,0.00,Acu-Link.com,2013-06-11 13:17:00,
2013-06-11 06:32:00,54.3,50.8,29.72,ESE,112,0.0,-999.0,88,-99.99,,,0.00,Acu-Link.com,2013-06-11 13:32:00,
2013-06-11 06:47:00,56.5,52.4,29.71,North,0,0.0,-999.0,86,-99.99,,,0.00,Acu-Link.com,2013-06-11 13:47:00,
2013-06-11 07:03:00,59.0,52.8,29.72,ESE,112,0.0,-999.0,80,-99.99,,,0.00,Acu-Link.com,2013-06-11 14:03:00,
2013-06-11 07:18:00,59.7,53.5,29.71,SW,225,0.0,-999.0,80,-99.99,,,0.00,Acu-Link.com,2013-06-11 14:18:00,
2013-06-11 07:33:00,62.6,54.6,29.72,ENE,67,0.0,-999.0,75,-99.99,,,0.00,Acu-Link.com,2013-06-11 14:33:00,
2013-06-11 07:49:00,64.2,54.6,29.72,SW,225,2.2,-999.0,71,-99.99,,,0.00,Acu-Link.com,2013-06-11 14:49:00,
2013-06-11 08:04:00,64.8,54.8,29.72,WSW,247,1.7,-999.0,70,-99.99,,,0.00,Acu-Link.com,2013-06-11 15:04:00,
2013-06-11 08:19:00,63.3,54.1,29.73,WNW,292,0.0,-999.0,72,-99.99,,,0.00,Acu-Link.com,2013-06-11 15:19:00,
2013-06-11 08:34:00,63.9,54.7,29.73,NE,45,2.7,-999.0,72,-99.99,,,0.00,Acu-Link.com,2013-06-11 15:34:00,
2013-06-11 08:49:00,65.8,54.9,29.73,SSW,202,1.1,-999.0,68,-99.99,,,0.00,Acu-Link.com,2013-06-11 15:49:00,
2013-06-11 09:05:00,66.6,55.3,29.74,NNW,337,1.7,-999.0,67,-99.99,,,0.00,Acu-Link.com,2013-06-11 16:05:00,
2013-06-11 09:20:00,69.4,57.1,29.74,SSW,202,1.7,-999.0,65,-99.99,,,0.00,Acu-Link.com,2013-06-11 16:20:00,
2013-06-11 09:35:00,69.3,56.2,29.74,SSE,157,1.7,-999.0,63,-99.99,,,0.00,Acu-Link.com,2013-06-11 16:35:00,
2013-06-11 09:50:00,69.8,56.2,29.74,SSE,157,1.7,-999.0,62,-99.99,,,0.00,Acu-Link.com,2013-06-11 16:50:00,
2013-06-11 10:05:00,71.1,56.5,29.74,SE,135,2.7,-999.0,60,-99.99,,,0.00,Acu-Link.com,2013-06-11 17:05:00,
2013-06-11 10:21:00,70.2,55.7,29.74,West,270,2.2,-999.0,60,-99.99,,,0.00,Acu-Link.com,2013-06-11 17:21:00,
2013-06-11 10:36:00,71.8,56.7,29.74,ESE,112,3.2,-999.0,59,-99.99,,,0.00,Acu-Link.com,2013-06-11 17:36:00,
2013-06-11 11:22:00,73.0,56.4,29.74,WSW,247,2.7,-999.0,56,-99.99,,,0.00,Acu-Link.com,2013-06-11 18:22:00,
2013-06-11 11:37:00,74.8,57.0,29.74,SSE,157,4.2,-999.0,54,-99.99,,,0.00,Acu-Link.com,2013-06-11 18:37:00,
2013-06-11 11:52:00,75.2,56.9,29.74,South,180,4.2,-999.0,53,-99.99,,,0.00,Acu-Link.com,2013-06-11 18:52:00,
2013-06-11 12:08:00,75.4,56.5,29.73,South,180,4.2,-999.0,52,-99.99,,,0.00,Acu-Link.com,2013-06-11 19:08:00,
2013-06-11 12:23:00,77.0,57.5,29.73,SSW,202,1.7,-999.0,51,-99.99,,,0.00,Acu-Link.com,2013-06-11 19:23:00,
2013-06-11 12:38:00,77.0,57.5,29.72,West,270,2.7,-999.0,51,-99.99,,,0.00,Acu-Link.com,2013-06-11 19:38:00,
2013-06-11 12:54:00,77.4,56.7,29.72,SW,225,3.7,-999.0,49,-99.99,,,0.00,Acu-Link.com,2013-06-11 19:54:00,
2013-06-11 13:09:00,79.0,59.3,29.72,SSE,157,3.7,-999.0,51,-99.99,,,0.00,Acu-Link.com,2013-06-11 20:09:00,
2013-06-11 13:24:00,78.1,57.9,29.71,South,180,2.2,-999.0,50,-99.99,,,0.00,Acu-Link.com,2013-06-11 20:24:00,
2013-06-11 13:39:00,78.8,57.4,29.70,SE,135,2.2,-999.0,48,-99.99,,,0.00,Acu-Link.com,2013-06-11 20:39:00,
2013-06-11 13:54:00,80.4,57.7,29.70,SW,225,1.7,-999.0,46,-99.99,,,0.00,Acu-Link.com,2013-06-11 20:54:00,
2013-06-11 14:10:00,79.2,57.8,29.70,SW,225,0.0,-999.0,48,-99.99,,,0.00,Acu-Link.com,2013-06-11 21:10:00,
2013-06-11 14:25:00,80.2,57.5,29.69,West,270,1.7,-999.0,46,-99.99,,,0.00,Acu-Link.com,2013-06-11 21:25:00,
2013-06-11 14:40:00,81.1,57.1,29.68,WNW,292,4.7,-999.0,44,-99.99,,,0.00,Acu-Link.com,2013-06-11 21:40:00,
2013-06-11 14:55:00,80.4,57.1,29.68,WNW,292,4.2,-999.0,45,-99.99,,,0.00,Acu-Link.com,2013-06-11 21:55:00,
2013-06-11 15:11:00,80.4,56.5,29.68,West,270,2.7,-999.0,44,-99.99,,,0.00,Acu-Link.com,2013-06-11 22:11:00,
2013-06-11 15:26:00,81.9,58.4,29.67,SSE,157,1.7,-999.0,45,-99.99,,,0.00,Acu-Link.com,2013-06-11 22:26:00,
2013-06-11 15:41:00,81.7,57.6,29.67,South,180,2.7,-999.0,44,-99.99,,,0.00,Acu-Link.com,2013-06-11 22:41:00,
2013-06-11 15:56:00,81.3,57.3,29.66,West,270,2.7,-999.0,44,-99.99,,,0.00,Acu-Link.com,2013-06-11 22:56:00,
2013-06-11 16:12:00,81.7,57.6,29.65,SSW,202,4.2,-999.0,44,-99.99,,,0.00,Acu-Link.com,2013-06-11 23:12:00,
2013-06-11 16:27:00,82.2,58.1,29.65,SSE,157,3.2,-999.0,44,-99.99,,,0.00,Acu-Link.com,2013-06-11 23:27:00,
2013-06-11 16:43:00,81.3,57.3,29.65,SW,225,3.7,-999.0,44,-99.99,,,0.00,Acu-Link.com,2013-06-11 23:43:00,
2013-06-11 16:58:00,81.9,58.4,29.65,West,270,2.7,-999.0,45,-99.99,,,0.00,Acu-Link.com,2013-06-11 23:58:00,
2013-06-11 17:13:00,80.4,57.7,29.65,WNW,292,2.2,-999.0,46,-99.99,,,0.00,Acu-Link.com,2013-06-12 00:13:00,
2013-06-11 17:28:00,79.2,57.8,29.64,SW,225,2.2,-999.0,48,-99.99,,,0.00,Acu-Link.com,2013-06-12 00:28:00,
2013-06-11 17:44:00,79.3,57.9,29.64,West,270,3.7,-999.0,48,-99.99,,,0.00,Acu-Link.com,2013-06-12 00:44:00,
2013-06-11 17:59:00,78.8,57.4,29.64,WSW,247,5.3,-999.0,48,-99.99,,,0.00,Acu-Link.com,2013-06-12 00:59:00,
2013-06-11 18:14:00,79.2,57.2,29.64,West,270,3.7,-999.0,47,-99.99,,,0.00,Acu-Link.com,2013-06-12 01:14:00,
2013-06-11 18:30:00,79.3,57.9,29.64,SE,135,2.2,-999.0,48,-99.99,,,0.00,Acu-Link.com,2013-06-12 01:30:00,
2013-06-11 18:45:00,77.9,57.2,29.64,West,270,2.7,-999.0,49,-99.99,,,0.00,Acu-Link.com,2013-06-12 01:45:00,
2013-06-11 19:00:00,79.0,57.6,29.63,NE,45,2.7,-999.0,48,-99.99,,,0.00,Acu-Link.com,2013-06-12 02:00:00,
2013-06-11 19:15:00,75.7,57.9,29.63,SE,135,2.7,-999.0,54,-99.99,,,0.00,Acu-Link.com,2013-06-12 02:15:00,
2013-06-11 19:31:00,73.6,56.9,29.63,WNW,292,3.2,-999.0,56,-99.99,,,0.00,Acu-Link.com,2013-06-12 02:31:00,
2013-06-11 19:46:00,71.8,56.7,29.63,NNW,337,3.2,-999.0,59,-99.99,,,0.00,Acu-Link.com,2013-06-12 02:46:00,
2013-06-11 20:02:00,71.1,56.5,29.63,NE,45,2.7,-999.0,60,-99.99,,,0.00,Acu-Link.com,2013-06-12 03:02:00,
2013-06-11 20:17:00,68.9,55.8,29.63,North,0,2.2,-999.0,63,-99.99,,,0.00,Acu-Link.com,2013-06-12 03:17:00,
2013-06-11 20:32:00,68.0,54.5,29.63,WNW,292,3.2,-999.0,62,-99.99,,,0.00,Acu-Link.com,2013-06-12 03:32:00,
2013-06-11 20:48:00,67.3,54.3,29.63,WSW,247,0.0,-999.0,63,-99.99,,,0.00,Acu-Link.com,2013-06-12 03:48:00,
2013-06-11 21:03:00,66.0,53.5,29.63,NNE,22,0.0,-999.0,64,-99.99,,,0.00,Acu-Link.com,2013-06-12 04:03:00,
2013-06-11 21:18:00,64.6,53.4,29.64,West,270,0.0,-999.0,67,-99.99,,,0.00,Acu-Link.com,2013-06-12 04:18:00,
2013-06-11 21:34:00,63.9,53.5,29.64,ENE,67,0.0,-999.0,69,-99.99,,,0.00,Acu-Link.com,2013-06-12 04:34:00,
2013-06-11 21:49:00,63.0,53.8,29.65,SE,135,1.7,-999.0,72,-99.99,,,0.00,Acu-Link.com,2013-06-12 04:49:00,
2013-06-11 22:04:00,62.4,52.5,29.66,SW,225,1.1,-999.0,70,-99.99,,,0.00,Acu-Link.com,2013-06-12 05:04:00,
2013-06-11 22:20:00,62.2,52.3,29.66,ESE,112,0.0,-999.0,70,-99.99,,,0.00,Acu-Link.com,2013-06-12 05:20:00,
2013-06-11 22:35:00,61.9,52.0,29.66,WSW,247,1.1,-999.0,70,-99.99,,,0.00,Acu-Link.com,2013-06-12 05:35:00,
2013-06-11 22:50:00,61.5,51.6,29.66,ESE,112,2.7,-999.0,70,-99.99,,,0.00,Acu-Link.com,2013-06-12 05:50:00,
2013-06-11 23:05:00,61.7,51.4,29.65,North,0,2.2,-999.0,69,-99.99,,,0.00,Acu-Link.com,2013-06-12 06:05:00,
2013-06-11 23:21:00,60.8,51.0,29.65,ESE,112,0.0,-999.0,70,-99.99,,,0.00,Acu-Link.com,2013-06-12 06:21:00,
2013-06-11 23:36:00,61.2,51.7,29.65,WSW,247,2.2,-999.0,71,-99.99,,,0.00,Acu-Link.com,2013-06-12 06:36:00,
2013-06-11 23:51:00,60.8,52.1,29.65,WNW,292,3.2,-999.0,73,-99.99,,,0.00,Acu-Link.com,2013-06-12 06:51:00,